Time;durP1;ratioP1;P1;durP2;ratioP2;P2;SDS_P1;SDS_P2;PMS_P1;PMS_P2;Temp;Humidity;BMP_temperature;BMP_pressure;BME280_temperature;BME280_humidity;BME280_pressure;Samples;Min_cycle;Max_cycle;Signal;HPM_P1;HPM_P2
2023/01/30 00:01:11;;;;;;;113.70;45.25;;;;;;;;;;7363107;19;20289;-75
2023/01/30 00:03:36;;;;;;;114.22;45.83;;;;;;;;;;7367990;19;20023;-76
2023/01/30 00:06:02;;;;;;;115.22;44.88;;;;;;;;;;7366810;19;20290;-76
2023/01/30 00:08:27;;;;;;;110.78;44.33;;;;;;;;;;7365079;19;20019;-75
2023/01/30 00:10:52;;;;;;;115.18;45.42;;;;;;;;;;7361853;19;20400;-75
2023/01/30 00:13:17;;;;;;;121.47;44.63;;;;;;;;;;7366774;19;20007;-76
2023/01/30 00:15:42;;;;;;;111.32;45.40;;;;;;;;;;7364957;19;20259;-77
2023/01/30 00:18:08;;;;;;;111.72;44.53;;;;;;;;;;7366538;19;20058;-75
2023/01/30 00:20:33;;;;;;;117.47;44.75;;;;;;;;;;7368020;19;20066;-75
2023/01/30 00:22:58;;;;;;;115.38;45.25;;;;;;;;;;7364194;19;19990;-76
2023/01/30 00:25:24;;;;;;;115.03;47.03;;;;;;;;;;7356505;19;20131;-75
2023/01/30 00:27:50;;;;;;;110.38;44.55;;;;;;;;;;7364998;19;20134;-76
2023/01/30 00:30:15;;;;;;;118.47;44.08;;;;;;;;;;7364918;19;21058;-76
2023/01/30 00:32:40;;;;;;;110.45;43.97;;;;;;;;;;7368046;19;20006;-75
2023/01/30 00:35:06;;;;;;;109.80;43.92;;;;;;;;;;7363962;19;20070;-76
2023/01/30 00:37:31;;;;;;;114.00;44.47;;;;;;;;;;7372474;19;20002;-76
2023/01/30 00:39:56;;;;;;;109.43;42.85;;;;;;;;;;7367307;19;20305;-78
2023/01/30 00:47:49;;;;;;;111.93;43.28;;;;;;;;;;7374998;19;20404;-76
2023/01/30 00:50:14;;;;;;;124.30;44.05;;;;;;;;;;7364465;19;20006;-76
2023/01/30 00:52:40;;;;;;;106.30;41.63;;;;;;;;;;7371555;19;20018;-76
2023/01/30 00:55:05;;;;;;;106.28;43.22;;;;;;;;;;7369401;19;20067;-76
2023/01/30 00:57:30;;;;;;;112.82;43.72;;;;;;;;;;7369201;19;20040;-76
2023/01/30 00:59:56;;;;;;;113.85;43.92;;;;;;;;;;7372720;19;20040;-77
2023/01/30 01:02:21;;;;;;;107.45;42.40;;;;;;;;;;7360902;19;20006;-76
2023/01/30 01:04:46;;;;;;;104.97;43.30;;;;;;;;;;7370585;19;20018;-76
2023/01/30 01:07:12;;;;;;;120.05;44.42;;;;;;;;;;7363178;19;20316;-76
2023/01/30 01:09:38;;;;;;;112.32;43.83;;;;;;;;;;7312422;19;20023;-76
2023/01/30 01:12:03;;;;;;;111.88;43.97;;;;;;;;;;7364526;19;20142;-77
2023/01/30 01:14:29;;;;;;;110.80;43.72;;;;;;;;;;7370228;19;20018;-76
2023/01/30 01:16:54;;;;;;;111.40;42.60;;;;;;;;;;7371967;19;20003;-77
2023/01/30 01:19:19;;;;;;;112.20;43.67;;;;;;;;;;7364713;19;19998;-77
2023/01/30 01:21:44;;;;;;;109.05;43.72;;;;;;;;;;7369263;19;20010;-77
2023/01/30 01:24:11;;;;;;;108.43;42.88;;;;;;;;;;7362313;19;20038;-76
2023/01/30 01:26:36;;;;;;;113.32;44.05;;;;;;;;;;7369857;19;20416;-76
2023/01/30 01:29:01;;;;;;;108.93;42.85;;;;;;;;;;7355689;19;19995;-76
2023/01/30 01:31:26;;;;;;;104.05;41.75;;;;;;;;;;7366744;19;20014;-77
2023/01/30 01:33:52;;;;;;;112.15;42.30;;;;;;;;;;7369230;19;20011;-75
2023/01/30 01:36:17;;;;;;;107.63;42.58;;;;;;;;;;7358540;19;20504;-76
2023/01/30 01:38:42;;;;;;;106.50;41.28;;;;;;;;;;7364017;19;20347;-75
2023/01/30 01:41:09;;;;;;;104.35;41.92;;;;;;;;;;7365817;19;19996;-77
2023/01/30 01:43:54;;;;;;;99.85;39.75;;;;;;;;;;7369967;19;20006;-75
2023/01/30 01:46:22;;;;;;;98.00;39.50;;;;;;;;;;7366023;19;20049;-76
2023/01/30 01:48:50;;;;;;;101.95;41.10;;;;;;;;;;7316886;19;20010;-79
2023/01/30 01:51:36;;;;;;;108.13;40.35;;;;;;;;;;7366426;19;20010;-77
2023/01/30 01:54:05;;;;;;;94.93;40.28;;;;;;;;;;7359639;19;20087;-78
2023/01/30 01:56:31;;;;;;;115.25;45.55;;;;;;;;;;7371159;19;20382;-77
2023/01/30 01:59:18;;;;;;;115.75;44.63;;;;;;;;;;7368670;19;20024;-77
2023/01/30 02:01:44;;;;;;;115.93;44.00;;;;;;;;;;7365042;19;20018;-77
2023/01/30 02:04:10;;;;;;;108.45;41.78;;;;;;;;;;7368686;19;20320;-77
2023/01/30 02:06:37;;;;;;;111.03;42.38;;;;;;;;;;7368678;19;20604;-77
2023/01/30 02:09:06;;;;;;;108.63;44.35;;;;;;;;;;7323463;19;20039;-76
2023/01/30 02:11:41;;;;;;;102.65;41.60;;;;;;;;;;7266729;19;20019;-77
2023/01/30 02:14:07;;;;;;;110.78;45.88;;;;;;;;;;7281250;19;20014;-78
2023/01/30 02:16:34;;;;;;;112.55;43.40;;;;;;;;;;7278977;19;20281;-78
2023/01/30 02:18:59;;;;;;;111.40;44.20;;;;;;;;;;7281643;19;20673;-78
2023/01/30 02:21:24;;;;;;;111.53;43.38;;;;;;;;;;7273786;19;20034;-79
2023/01/30 02:24:02;;;;;;;120.32;45.05;;;;;;;;;;7283054;19;20380;-77
2023/01/30 02:26:50;;;;;;;115.03;46.72;;;;;;;;;;7284265;19;20713;-78
2023/01/30 02:29:34;;;;;;;125.30;47.45;;;;;;;;;;7286111;19;20384;-78
2023/01/30 02:32:13;;;;;;;114.90;44.80;;;;;;;;;;7284002;19;20558;-76
2023/01/30 02:34:44;;;;;;;117.50;47.40;;;;;;;;;;7283248;19;20584;-77
2023/01/30 02:37:12;;;;;;;118.18;45.60;;;;;;;;;;7285542;19;20334;-77
2023/01/30 02:39:54;;;;;;;130.40;48.30;;;;;;;;;;7272174;19;20845;-78
2023/01/30 02:42:19;;;;;;;120.00;45.55;;;;;;;;;;7279628;19;20375;-76
2023/01/30 02:44:51;;;;;;;119.47;45.50;;;;;;;;;;7274456;19;20003;-77
2023/01/30 02:47:37;;;;;;;118.95;45.40;;;;;;;;;;7270806;19;20023;-76
2023/01/30 02:50:24;;;;;;;122.05;45.03;;;;;;;;;;7272368;19;20827;-77
2023/01/30 02:52:50;;;;;;;130.90;44.90;;;;;;;;;;7256227;19;20014;-78
2023/01/30 02:55:23;;;;;;;138.27;47.95;;;;;;;;;;7256743;19;20345;-78
2023/01/30 02:57:48;;;;;;;128.10;46.67;;;;;;;;;;7256888;19;20011;-78
2023/01/30 03:00:15;;;;;;;125.88;44.72;;;;;;;;;;7256015;19;20014;-79
2023/01/30 03:02:50;;;;;;;145.07;48.25;;;;;;;;;;7250564;19;20455;-78
2023/01/30 03:05:15;;;;;;;140.60;46.90;;;;;;;;;;7259860;19;20018;-77
2023/01/30 03:07:44;;;;;;;132.15;46.50;;;;;;;;;;7267533;19;20674;-79
2023/01/30 03:10:17;;;;;;;137.57;48.67;;;;;;;;;;7338425;19;20251;-76
2023/01/30 03:12:55;;;;;;;143.35;48.25;;;;;;;;;;7361564;19;20035;-77
2023/01/30 03:15:26;;;;;;;132.07;47.33;;;;;;;;;;7363389;19;20021;-77
2023/01/30 03:17:51;;;;;;;124.03;46.75;;;;;;;;;;7367773;19;20114;-76
2023/01/30 03:20:18;;;;;;;139.25;46.20;;;;;;;;;;7360442;19;20110;-77
2023/01/30 03:22:43;;;;;;;137.57;46.53;;;;;;;;;;7362365;19;19998;-77
2023/01/30 03:25:10;;;;;;;144.05;45.78;;;;;;;;;;7356239;19;20038;-77
2023/01/30 03:27:36;;;;;;;130.02;46.17;;;;;;;;;;7365786;19;20057;-77
2023/01/30 03:30:01;;;;;;;142.45;46.92;;;;;;;;;;7366723;19;20459;-77
2023/01/30 03:32:26;;;;;;;140.30;47.67;;;;;;;;;;7360832;19;20092;-77
2023/01/30 03:34:51;;;;;;;140.60;47.10;;;;;;;;;;7367513;19;20010;-77
2023/01/30 03:37:16;;;;;;;138.77;44.67;;;;;;;;;;7361690;19;20426;-77
2023/01/30 03:39:42;;;;;;;127.13;45.50;;;;;;;;;;7328715;19;20013;-77
2023/01/30 03:42:07;;;;;;;141.63;47.70;;;;;;;;;;7365013;19;20122;-77
2023/01/30 03:44:32;;;;;;;132.25;45.40;;;;;;;;;;7367560;19;20010;-77
2023/01/30 03:46:58;;;;;;;134.07;46.47;;;;;;;;;;7357909;19;20006;-77
2023/01/30 03:49:23;;;;;;;121.72;43.03;;;;;;;;;;7347810;19;20110;-78
2023/01/30 03:51:48;;;;;;;128.15;42.15;;;;;;;;;;7360892;19;20577;-77
2023/01/30 03:54:13;;;;;;;123.22;43.85;;;;;;;;;;7354347;19;19998;-78
2023/01/30 03:56:39;;;;;;;126.47;43.20;;;;;;;;;;7358510;19;20015;-77
2023/01/30 03:59:04;;;;;;;128.32;42.92;;;;;;;;;;7360213;19;20011;-77
2023/01/30 04:01:29;;;;;;;113.60;40.47;;;;;;;;;;7355842;19;20963;-77
2023/01/30 04:03:54;;;;;;;113.22;39.88;;;;;;;;;;7360831;19;20069;-77
2023/01/30 04:06:19;;;;;;;112.13;38.38;;;;;;;;;;7356084;19;20034;-77
2023/01/30 04:08:44;;;;;;;112.63;39.08;;;;;;;;;;7352130;19;20042;-77
2023/01/30 04:11:10;;;;;;;97.20;37.63;;;;;;;;;;7351984;19;20018;-77
2023/01/30 04:13:35;;;;;;;107.60;39.13;;;;;;;;;;7338690;19;20050;-77
2023/01/30 04:16:17;;;;;;;99.15;37.25;;;;;;;;;;7368141;19;20081;-77
2023/01/30 04:18:43;;;;;;;103.25;37.00;;;;;;;;;;7364227;19;20433;-78
2023/01/30 04:21:08;;;;;;;94.55;36.55;;;;;;;;;;7367593;19;20026;-78
2023/01/30 04:23:33;;;;;;;102.10;36.42;;;;;;;;;;7360307;19;20002;-77
2023/01/30 04:25:58;;;;;;;96.72;34.65;;;;;;;;;;7361525;19;20022;-77
2023/01/30 04:28:23;;;;;;;94.10;35.50;;;;;;;;;;7357939;19;19999;-76
2023/01/30 04:30:51;;;;;;;86.55;34.00;;;;;;;;;;7364442;19;20112;-76
2023/01/30 04:33:16;;;;;;;91.15;35.05;;;;;;;;;;7361128;19;20022;-77
2023/01/30 04:35:49;;;;;;;90.38;34.78;;;;;;;;;;7364676;19;20003;-77
2023/01/30 04:38:15;;;;;;;83.63;34.10;;;;;;;;;;7364508;19;20006;-78
2023/01/30 04:40:40;;;;;;;90.53;33.95;;;;;;;;;;7365652;19;20005;-77
2023/01/30 04:43:05;;;;;;;91.95;33.65;;;;;;;;;;7366095;19;20015;-77
2023/01/30 04:45:30;;;;;;;75.15;30.45;;;;;;;;;;7363425;19;20029;-75
2023/01/30 04:47:55;;;;;;;75.60;30.35;;;;;;;;;;7326593;19;20099;-77
2023/01/30 04:50:21;;;;;;;79.63;31.92;;;;;;;;;;7353817;19;20011;-76
2023/01/30 04:52:46;;;;;;;81.93;30.92;;;;;;;;;;7362906;19;20003;-76
2023/01/30 04:55:11;;;;;;;66.88;28.35;;;;;;;;;;7359179;19;20431;-77
2023/01/30 04:57:36;;;;;;;65.93;27.58;;;;;;;;;;7369504;19;20377;-77
2023/01/30 05:00:02;;;;;;;64.97;27.08;;;;;;;;;;7365419;19;20037;-78
2023/01/30 05:02:27;;;;;;;67.70;26.92;;;;;;;;;;7344300;19;20353;-77
2023/01/30 05:04:52;;;;;;;59.80;25.95;;;;;;;;;;7358577;19;20051;-76
2023/01/30 05:07:17;;;;;;;61.53;27.33;;;;;;;;;;7370407;19;19995;-77
2023/01/30 05:09:42;;;;;;;66.45;28.15;;;;;;;;;;7364797;19;20802;-76
2023/01/30 05:12:08;;;;;;;63.72;27.27;;;;;;;;;;7365063;19;20018;-77
2023/01/30 05:14:34;;;;;;;68.37;26.87;;;;;;;;;;7358305;19;20037;-77
2023/01/30 05:16:59;;;;;;;67.78;25.60;;;;;;;;;;7366784;19;20247;-76
2023/01/30 05:19:24;;;;;;;65.65;26.00;;;;;;;;;;7364335;19;20009;-77
2023/01/30 05:21:49;;;;;;;64.60;26.73;;;;;;;;;;7356911;19;20014;-76
2023/01/30 05:24:15;;;;;;;66.53;25.75;;;;;;;;;;7362627;19;19999;-76
2023/01/30 05:26:40;;;;;;;67.32;26.13;;;;;;;;;;7366185;19;20482;-77
2023/01/30 05:29:05;;;;;;;66.35;25.70;;;;;;;;;;7365407;19;20446;-76
2023/01/30 05:31:30;;;;;;;74.60;26.70;;;;;;;;;;7356406;19;20811;-77
2023/01/30 05:33:56;;;;;;;62.45;24.98;;;;;;;;;;7335953;19;20019;-76
2023/01/30 05:36:21;;;;;;;58.28;24.60;;;;;;;;;;7363651;19;20034;-77
2023/01/30 05:38:47;;;;;;;64.72;24.67;;;;;;;;;;7362085;19;20009;-77
2023/01/30 05:41:13;;;;;;;56.60;24.27;;;;;;;;;;7367425;19;20070;-76
2023/01/30 05:43:38;;;;;;;54.05;22.38;;;;;;;;;;7367022;19;20384;-77
2023/01/30 05:46:04;;;;;;;57.25;22.92;;;;;;;;;;7366677;19;20025;-76
2023/01/30 05:48:30;;;;;;;56.17;23.52;;;;;;;;;;7359497;19;20014;-76
2023/01/30 05:50:56;;;;;;;54.33;22.33;;;;;;;;;;7368925;19;19999;-79
2023/01/30 05:53:22;;;;;;;48.22;20.98;;;;;;;;;;7337123;19;20351;-77
2023/01/30 05:55:54;;;;;;;45.10;20.17;;;;;;;;;;7358064;19;20019;-77
2023/01/30 05:58:19;;;;;;;47.28;21.98;;;;;;;;;;7364635;19;20031;-77
2023/01/30 06:00:45;;;;;;;45.92;21.30;;;;;;;;;;7366346;19;20010;-77
2023/01/30 06:03:10;;;;;;;45.90;20.77;;;;;;;;;;7367510;19;20247;-76
2023/01/30 06:05:36;;;;;;;44.42;19.70;;;;;;;;;;7367142;19;20013;-76
2023/01/30 06:08:01;;;;;;;43.80;18.88;;;;;;;;;;7361726;19;20006;-77
2023/01/30 06:10:27;;;;;;;48.53;20.00;;;;;;;;;;7325992;19;20466;-76
2023/01/30 06:12:52;;;;;;;46.65;19.13;;;;;;;;;;7375414;19;20015;-75
2023/01/30 06:15:17;;;;;;;43.78;18.67;;;;;;;;;;7364110;19;20474;-76
2023/01/30 06:17:42;;;;;;;36.60;16.83;;;;;;;;;;7368043;19;20078;-76
2023/01/30 06:20:08;;;;;;;37.33;18.08;;;;;;;;;;7371689;19;20066;-76
2023/01/30 06:22:33;;;;;;;36.95;16.17;;;;;;;;;;7362799;19;20018;-76
2023/01/30 06:24:59;;;;;;;38.58;16.10;;;;;;;;;;7364945;19;20014;-76
2023/01/30 06:27:24;;;;;;;37.03;16.05;;;;;;;;;;7346803;19;20558;-78
2023/01/30 06:29:49;;;;;;;39.25;16.67;;;;;;;;;;7363415;19;20027;-75
2023/01/30 06:32:14;;;;;;;39.70;15.60;;;;;;;;;;7363472;19;20018;-75
2023/01/30 06:34:39;;;;;;;45.10;17.40;;;;;;;;;;7366226;19;20230;-75
2023/01/30 06:37:05;;;;;;;42.30;16.42;;;;;;;;;;7358935;19;20145;-75
2023/01/30 06:39:30;;;;;;;32.80;14.20;;;;;;;;;;7343597;19;20438;-76
2023/01/30 06:41:55;;;;;;;35.15;14.32;;;;;;;;;;7360673;19;20078;-76
2023/01/30 06:44:20;;;;;;;30.23;12.82;;;;;;;;;;7359382;19;20018;-76
2023/01/30 06:46:45;;;;;;;31.88;14.90;;;;;;;;;;7366509;19;20003;-75
2023/01/30 06:49:11;;;;;;;29.48;12.82;;;;;;;;;;7368486;19;20442;-75
2023/01/30 06:51:36;;;;;;;26.95;12.40;;;;;;;;;;7363493;19;20317;-76
2023/01/30 06:54:01;;;;;;;27.02;12.90;;;;;;;;;;7338656;19;20269;-75
2023/01/30 06:56:26;;;;;;;28.65;12.80;;;;;;;;;;7352953;19;20007;-76
2023/01/30 06:58:51;;;;;;;23.50;12.07;;;;;;;;;;7367169;19;20340;-75
2023/01/30 07:01:18;;;;;;;24.02;11.57;;;;;;;;;;7337504;19;19998;-76
2023/01/30 07:03:43;;;;;;;28.08;12.77;;;;;;;;;;7354861;19;20604;-75
2023/01/30 07:06:08;;;;;;;21.92;11.70;;;;;;;;;;7366120;19;19998;-78
2023/01/30 07:08:33;;;;;;;24.38;11.32;;;;;;;;;;7355546;19;20117;-77
2023/01/30 07:10:59;;;;;;;23.67;11.13;;;;;;;;;;7369052;19;20025;-77
2023/01/30 07:13:24;;;;;;;21.42;11.52;;;;;;;;;;7370970;19;20006;-78
2023/01/30 07:15:49;;;;;;;21.48;10.25;;;;;;;;;;7369040;19;20015;-77
2023/01/30 07:18:14;;;;;;;23.73;10.65;;;;;;;;;;7375213;19;20070;-77
2023/01/30 07:20:41;;;;;;;20.48;9.20;;;;;;;;;;7371524;19;20014;-77
2023/01/30 07:23:06;;;;;;;20.00;10.40;;;;;;;;;;7371727;19;20133;-77
2023/01/30 07:25:31;;;;;;;20.95;10.77;;;;;;;;;;7369478;19;20328;-77
2023/01/30 07:27:57;;;;;;;17.40;8.25;;;;;;;;;;7371964;19;20018;-77
2023/01/30 07:30:23;;;;;;;16.38;8.70;;;;;;;;;;7369312;19;20007;-78
2023/01/30 07:32:56;;;;;;;17.77;8.75;;;;;;;;;;7370586;19;20058;-77
2023/01/30 07:35:22;;;;;;;15.35;8.00;;;;;;;;;;7371310;19;20458;-78
2023/01/30 07:37:48;;;;;;;16.23;8.32;;;;;;;;;;7372844;19;20059;-78
2023/01/30 07:40:13;;;;;;;17.92;8.98;;;;;;;;;;7368325;19;20010;-77
2023/01/30 07:42:39;;;;;;;14.80;8.13;;;;;;;;;;7371284;19;20092;-77
2023/01/30 07:45:04;;;;;;;17.08;8.82;;;;;;;;;;7372168;19;20502;-77
2023/01/30 07:47:29;;;;;;;13.38;7.05;;;;;;;;;;7364810;19;20177;-77
2023/01/30 07:49:55;;;;;;;14.77;8.15;;;;;;;;;;7371373;19;20059;-77
2023/01/30 07:52:20;;;;;;;14.50;7.78;;;;;;;;;;7372115;19;20102;-77
2023/01/30 07:54:45;;;;;;;15.13;8.00;;;;;;;;;;7366819;19;20335;-77
2023/01/30 07:57:10;;;;;;;13.63;6.97;;;;;;;;;;7371195;19;20013;-78
2023/01/30 07:59:36;;;;;;;14.13;7.10;;;;;;;;;;7361969;19;20006;-77
2023/01/30 08:02:01;;;;;;;13.10;7.38;;;;;;;;;;7367712;19;19995;-78
2023/01/30 08:04:26;;;;;;;15.45;7.47;;;;;;;;;;7366864;19;20261;-78
2023/01/30 08:06:51;;;;;;;13.50;6.88;;;;;;;;;;7350791;19;20514;-78
2023/01/30 08:09:16;;;;;;;10.85;5.90;;;;;;;;;;7360325;19;20015;-77
2023/01/30 08:11:42;;;;;;;12.02;6.90;;;;;;;;;;7367274;19;20698;-77
2023/01/30 08:14:07;;;;;;;13.35;6.40;;;;;;;;;;7368251;19;20010;-78
2023/01/30 08:16:32;;;;;;;11.95;6.90;;;;;;;;;;7357857;19;20014;-78
2023/01/30 08:18:58;;;;;;;14.00;7.00;;;;;;;;;;7365197;19;20685;-78
2023/01/30 08:21:23;;;;;;;10.35;6.18;;;;;;;;;;7368395;19;20350;-79
2023/01/30 08:23:49;;;;;;;11.48;5.53;;;;;;;;;;7364832;19;20265;-78
2023/01/30 08:26:14;;;;;;;10.32;4.90;;;;;;;;;;7370125;19;20526;-78
2023/01/30 08:28:40;;;;;;;9.88;5.63;;;;;;;;;;7363905;19;20099;-78
2023/01/30 08:31:09;;;;;;;7.88;4.57;;;;;;;;;;7365642;19;20390;-78
2023/01/30 08:33:34;;;;;;;9.57;4.90;;;;;;;;;;7363976;19;20435;-77
2023/01/30 08:35:59;;;;;;;9.52;4.55;;;;;;;;;;7368461;19;20020;-77
2023/01/30 08:38:24;;;;;;;8.20;4.28;;;;;;;;;;7361002;19;20010;-78
2023/01/30 08:40:50;;;;;;;9.65;4.57;;;;;;;;;;7366625;19;20056;-78
2023/01/30 08:43:15;;;;;;;7.85;4.60;;;;;;;;;;7368679;19;20002;-77
2023/01/30 08:45:40;;;;;;;7.28;4.22;;;;;;;;;;7363582;19;20121;-77
2023/01/30 08:48:06;;;;;;;9.57;4.35;;;;;;;;;;7350603;19;20014;-77
2023/01/30 08:50:32;;;;;;;7.43;3.95;;;;;;;;;;7363414;19;20018;-79
2023/01/30 08:53:01;;;;;;;6.88;3.83;;;;;;;;;;7366330;19;20026;-78
2023/01/30 08:55:26;;;;;;;8.00;4.38;;;;;;;;;;7357942;19;20010;-77
2023/01/30 08:57:54;;;;;;;7.22;4.15;;;;;;;;;;7367737;19;20002;-77
2023/01/30 09:00:20;;;;;;;7.25;3.97;;;;;;;;;;7374976;19;20076;-77
2023/01/30 09:02:45;;;;;;;7.40;3.53;;;;;;;;;;7368542;19;20002;-77
2023/01/30 09:05:10;;;;;;;6.38;3.28;;;;;;;;;;7371689;19;20435;-77
2023/01/30 09:07:35;;;;;;;7.20;4.10;;;;;;;;;;7367124;19;20321;-78
2023/01/30 09:10:00;;;;;;;6.53;3.20;;;;;;;;;;7368014;19;20243;-78
2023/01/30 09:12:26;;;;;;;6.68;3.60;;;;;;;;;;7372086;19;19998;-78
2023/01/30 09:14:56;;;;;;;7.07;3.55;;;;;;;;;;7372116;19;20047;-77
2023/01/30 09:17:22;;;;;;;6.63;3.33;;;;;;;;;;7367594;19;20108;-77
2023/01/30 09:19:47;;;;;;;8.80;3.75;;;;;;;;;;7360359;19;20014;-77
2023/01/30 09:22:12;;;;;;;6.53;3.17;;;;;;;;;;7372172;19;20028;-77
2023/01/30 09:24:38;;;;;;;6.18;3.00;;;;;;;;;;7366873;19;20014;-77
2023/01/30 09:27:03;;;;;;;6.57;3.20;;;;;;;;;;7372956;19;20018;-78
2023/01/30 09:29:28;;;;;;;6.07;2.83;;;;;;;;;;7368307;19;20002;-78
2023/01/30 09:31:55;;;;;;;5.95;3.08;;;;;;;;;;7372603;19;20006;-77
2023/01/30 09:34:20;;;;;;;6.13;2.85;;;;;;;;;;7369837;19;20014;-77
2023/01/30 09:36:46;;;;;;;5.50;2.80;;;;;;;;;;7369968;19;20032;-78
2023/01/30 09:39:11;;;;;;;8.27;3.03;;;;;;;;;;7367380;19;20014;-78
2023/01/30 09:41:55;;;;;;;5.72;2.83;;;;;;;;;;7370661;19;20037;-78
2023/01/30 09:44:36;;;;;;;5.88;3.00;;;;;;;;;;7372960;19;20014;-78
2023/01/30 09:47:04;;;;;;;5.95;2.83;;;;;;;;;;7370534;19;20010;-78
2023/01/30 09:49:29;;;;;;;6.95;3.05;;;;;;;;;;7367506;19;20573;-78
2023/01/30 09:52:07;;;;;;;5.68;2.88;;;;;;;;;;7362662;19;20002;-77
2023/01/30 09:54:35;;;;;;;5.53;2.80;;;;;;;;;;7366264;19;20093;-78
2023/01/30 09:57:08;;;;;;;7.68;3.40;;;;;;;;;;7371570;19;20022;-77
2023/01/30 09:59:38;;;;;;;10.20;3.85;;;;;;;;;;7370188;19;20075;-77
2023/01/30 10:02:22;;;;;;;12.13;4.22;;;;;;;;;;7342968;19;20018;-78
2023/01/30 10:04:48;;;;;;;10.85;5.05;;;;;;;;;;7369280;19;20018;-78
2023/01/30 10:07:16;;;;;;;10.80;4.45;;;;;;;;;;7367286;19;20014;-77
2023/01/30 10:09:41;;;;;;;13.63;5.22;;;;;;;;;;7359606;19;20670;-78
2023/01/30 10:12:25;;;;;;;10.82;5.05;;;;;;;;;;7369312;19;20010;-78
2023/01/30 10:15:10;;;;;;;14.63;5.95;;;;;;;;;;7342498;19;20427;-77
2023/01/30 10:17:35;;;;;;;;;;;;;;;;;;7365350;19;20019;-77
2023/01/30 10:20:15;;;;;;;11.93;6.50;;;;;;;;;;7370149;19;20012;-78
2023/01/30 10:22:52;;;;;;;18.90;6.80;;;;;;;;;;7368048;19;20017;-77
2023/01/30 10:25:30;;;;;;;16.80;7.28;;;;;;;;;;7367325;19;20110;-77
2023/01/30 10:28:00;;;;;;;13.75;7.00;;;;;;;;;;7369744;19;20018;-77
2023/01/30 10:30:26;;;;;;;15.13;7.43;;;;;;;;;;7371563;19;20011;-78
2023/01/30 10:32:57;;;;;;;16.08;7.75;;;;;;;;;;7366036;19;20012;-78
2023/01/30 10:35:24;;;;;;;19.45;8.05;;;;;;;;;;7371785;19;20010;-77
2023/01/30 10:37:59;;;;;;;18.58;8.23;;;;;;;;;;7370012;19;20027;-78
2023/01/30 10:40:31;;;;;;;17.15;7.50;;;;;;;;;;7364423;19;20006;-77
2023/01/30 10:43:01;;;;;;;15.02;7.25;;;;;;;;;;7367525;19;20474;-78
2023/01/30 10:45:41;;;;;;;15.63;6.43;;;;;;;;;;7370207;19;20033;-78
2023/01/30 10:48:15;;;;;;;16.65;7.68;;;;;;;;;;7370841;19;19995;-77
2023/01/30 10:50:52;;;;;;;17.60;6.53;;;;;;;;;;7366275;19;20420;-78
2023/01/30 10:53:36;;;;;;;20.80;7.10;;;;;;;;;;7358163;19;20680;-78
2023/01/30 10:56:05;;;;;;;13.85;6.85;;;;;;;;;;7370656;19;20138;-78
2023/01/30 10:58:37;;;;;;;16.63;6.15;;;;;;;;;;7351018;19;20002;-78
2023/01/30 11:01:06;;;;;;;20.77;6.50;;;;;;;;;;7367650;19;20400;-76
2023/01/30 11:03:37;;;;;;;14.90;6.90;;;;;;;;;;7367260;19;20020;-77
2023/01/30 11:06:15;;;;;;;14.15;6.15;;;;;;;;;;7364483;19;20086;-77
2023/01/30 11:08:40;;;;;;;13.65;6.15;;;;;;;;;;7363530;19;20047;-77
2023/01/30 11:11:25;;;;;;;15.20;6.18;;;;;;;;;;7369065;19;20377;-78
2023/01/30 11:13:50;;;;;;;;;;;;;;;;;;7354571;19;20037;-78
2023/01/30 11:16:15;;;;;;;19.95;6.53;;;;;;;;;;7369010;19;20010;-78
2023/01/30 11:18:48;;;;;;;13.88;6.25;;;;;;;;;;7368709;19;20230;-78
2023/01/30 11:21:18;;;;;;;19.10;6.50;;;;;;;;;;7368194;19;20443;-77
2023/01/30 11:23:44;;;;;;;19.25;6.75;;;;;;;;;;7361111;19;20106;-76
2023/01/30 11:26:18;;;;;;;15.30;5.88;;;;;;;;;;7368581;19;19995;-76
2023/01/30 11:28:45;;;;;;;17.00;5.97;;;;;;;;;;7359848;19;20354;-78
2023/01/30 11:31:15;;;;;;;18.13;5.90;;;;;;;;;;7368170;19;20039;-77
2023/01/30 11:33:40;;;;;;;20.05;6.20;;;;;;;;;;7364091;19;20018;-78
2023/01/30 11:36:21;;;;;;;16.42;5.70;;;;;;;;;;7367571;19;20018;-78
2023/01/30 11:38:55;;;;;;;13.48;4.93;;;;;;;;;;7358163;19;20014;-77
2023/01/30 11:41:20;;;;;;;17.58;5.82;;;;;;;;;;7367611;19;20015;-77
2023/01/30 11:43:47;;;;;;;17.08;6.00;;;;;;;;;;7365591;19;20021;-77
2023/01/30 11:46:14;;;;;;;13.10;5.70;;;;;;;;;;7368337;19;20077;-78
2023/01/30 11:48:52;;;;;;;20.00;5.47;;;;;;;;;;7363127;19;20018;-78
2023/01/30 11:51:19;;;;;;;13.85;4.88;;;;;;;;;;7354233;19;20291;-77
2023/01/30 11:53:48;;;;;;;20.90;5.47;;;;;;;;;;7355076;19;20018;-77
2023/01/30 11:56:15;;;;;;;19.77;5.50;;;;;;;;;;7366643;19;20034;-77
2023/01/30 11:58:45;;;;;;;17.48;5.05;;;;;;;;;;7365787;19;20018;-77
2023/01/30 12:01:10;;;;;;;17.67;4.75;;;;;;;;;;7365815;19;20015;-78
2023/01/30 12:03:43;;;;;;;21.23;5.65;;;;;;;;;;7357566;19;20117;-75
2023/01/30 12:06:08;;;;;;;14.25;4.68;;;;;;;;;;7369248;19;20483;-75
2023/01/30 12:08:38;;;;;;;21.63;4.55;;;;;;;;;;7350986;19;20430;-75
2023/01/30 12:11:17;;;;;;;19.50;4.90;;;;;;;;;;7358317;19;20007;-75
2023/01/30 12:13:44;;;;;;;21.98;4.35;;;;;;;;;;7362129;19;20010;-76
2023/01/30 12:16:21;;;;;;;18.33;4.35;;;;;;;;;;7365023;19;20739;-76
2023/01/30 12:19:05;;;;;;;11.75;4.25;;;;;;;;;;7363260;19;20037;-79
2023/01/30 12:21:41;;;;;;;14.20;3.85;;;;;;;;;;7362419;19;20135;-80
2023/01/30 12:24:21;;;;;;;12.35;4.18;;;;;;;;;;7357719;19;20021;-78
2023/01/30 12:26:51;;;;;;;16.58;3.72;;;;;;;;;;7357810;19;19998;-78
2023/01/30 12:29:42;;;;;;;15.82;3.78;;;;;;;;;;7365286;19;20031;-77
2023/01/30 12:32:16;;;;;;;16.90;4.00;;;;;;;;;;7366671;19;20305;-78
2023/01/30 12:34:44;;;;;;;18.63;4.40;;;;;;;;;;7356381;19;20014;-78
2023/01/30 12:37:28;;;;;;;16.33;3.33;;;;;;;;;;7371115;19;20316;-78
2023/01/30 12:39:59;;;;;;;15.60;3.05;;;;;;;;;;7367176;19;20315;-79
2023/01/30 12:42:37;;;;;;;15.75;3.58;;;;;;;;;;7375818;19;20266;-78
2023/01/30 12:45:02;;;;;;;21.05;4.22;;;;;;;;;;7353059;19;20430;-79
2023/01/30 12:47:48;;;;;;;12.80;3.63;;;;;;;;;;7360462;19;20006;-78
2023/01/30 12:50:32;;;;;;;23.02;4.13;;;;;;;;;;7369648;19;20455;-78
2023/01/30 12:52:57;;;;;;;18.00;3.33;;;;;;;;;;7368226;19;19998;-77
2023/01/30 12:55:31;;;;;;;14.45;3.42;;;;;;;;;;7368884;19;20042;-78
2023/01/30 12:58:02;;;;;;;19.15;3.78;;;;;;;;;;7372511;19;20031;-77
2023/01/30 13:00:36;;;;;;;18.90;3.65;;;;;;;;;;7373454;19;20158;-77
2023/01/30 13:03:02;;;;;;;11.57;3.28;;;;;;;;;;7366910;19;20431;-77
2023/01/30 13:05:27;;;;;;;17.42;3.63;;;;;;;;;;7374471;19;20039;-76
2023/01/30 13:08:02;;;;;;;16.88;3.42;;;;;;;;;;7369647;19;20026;-77
2023/01/30 13:10:32;;;;;;;19.85;3.70;;;;;;;;;;7367143;19;20142;-77
2023/01/30 13:13:06;;;;;;;18.73;3.40;;;;;;;;;;7372754;19;20022;-76
2023/01/30 13:15:31;;;;;;;13.77;3.63;;;;;;;;;;7374730;19;20121;-77
2023/01/30 13:18:02;;;;;;;19.48;3.13;;;;;;;;;;7368399;19;20087;-77
2023/01/30 13:20:37;;;;;;;17.67;3.20;;;;;;;;;;7366944;19;20266;-77
2023/01/30 13:23:14;;;;;;;24.58;3.53;;;;;;;;;;7365235;19;20439;-78
2023/01/30 13:25:59;;;;;;;14.02;3.35;;;;;;;;;;7367366;19;20003;-77
2023/01/30 13:28:26;;;;;;;14.35;3.72;;;;;;;;;;7336809;19;20119;-76
2023/01/30 13:30:52;;;;;;;16.33;3.85;;;;;;;;;;7362200;19;20014;-77
2023/01/30 13:33:38;;;;;;;15.88;3.85;;;;;;;;;;7370275;19;20039;-77
2023/01/30 13:36:21;;;;;;;17.63;3.60;;;;;;;;;;7368268;19;20087;-77
2023/01/30 13:38:56;;;;;;;23.77;4.63;;;;;;;;;;7359010;19;20117;-78
2023/01/30 13:41:22;;;;;;;21.58;4.60;;;;;;;;;;7369367;19;20015;-77
2023/01/30 13:43:50;;;;;;;17.80;3.78;;;;;;;;;;7368335;19;20010;-78
2023/01/30 13:46:23;;;;;;;18.83;3.72;;;;;;;;;;7371023;19;20472;-77
2023/01/30 13:48:54;;;;;;;19.63;3.83;;;;;;;;;;7349320;19;20330;-77
2023/01/30 13:51:38;;;;;;;19.92;3.95;;;;;;;;;;7371361;19;20142;-77
2023/01/30 13:54:06;;;;;;;22.70;5.18;;;;;;;;;;7361441;19;20006;-77
2023/01/30 13:56:37;;;;;;;26.88;4.63;;;;;;;;;;7369997;19;20089;-78
2023/01/30 13:59:14;;;;;;;19.27;3.70;;;;;;;;;;7366987;19;20400;-77
2023/01/30 14:01:57;;;;;;;15.52;3.47;;;;;;;;;;7370508;19;20079;-76
2023/01/30 14:04:35;;;;;;;13.48;3.72;;;;;;;;;;7367797;19;20314;-77
2023/01/30 14:07:20;;;;;;;19.23;3.95;;;;;;;;;;7367504;19;20047;-77
2023/01/30 14:09:49;;;;;;;20.13;4.63;;;;;;;;;;7365174;19;20751;-76
2023/01/30 14:12:17;;;;;;;18.50;4.40;;;;;;;;;;7368951;19;20127;-76
2023/01/30 14:14:55;;;;;;;26.80;4.22;;;;;;;;;;7371494;19;20018;-77
2023/01/30 14:17:20;;;;;;;18.80;4.97;;;;;;;;;;7368357;19;20110;-77
2023/01/30 14:19:51;;;;;;;17.52;3.90;;;;;;;;;;7365607;19;20013;-77
2023/01/30 14:22:34;;;;;;;24.10;5.10;;;;;;;;;;7370611;19;20439;-77
2023/01/30 14:25:17;;;;;;;20.58;4.43;;;;;;;;;;7362982;19;20009;-77
2023/01/30 14:27:43;;;;;;;24.20;4.55;;;;;;;;;;7370341;19;20014;-76
2023/01/30 14:30:28;;;;;;;22.17;3.95;;;;;;;;;;7368032;19;21129;-77
2023/01/30 14:32:54;;;;;;;21.30;4.70;;;;;;;;;;7365615;19;20027;-76
2023/01/30 14:35:20;;;;;;;27.23;4.65;;;;;;;;;;7371110;19;20479;-75